createdAt,value
2022-10-19T00:01:18.183Z,101121.50
2022-10-19T00:06:26.270Z,101121.19
2022-10-19T00:08:58.358Z,101122.08
2022-10-19T00:11:27.852Z,101119.95
2022-10-19T00:13:57.344Z,101116.29
2022-10-19T00:16:30.697Z,101110.95
2022-10-19T00:19:01.551Z,101114.87
2022-10-19T00:21:30.320Z,101114.39
2022-10-19T00:23:58.616Z,101111.34
2022-10-19T00:26:27.332Z,101113.85
2022-10-19T00:28:56.467Z,101111.13
2022-10-19T00:31:25.261Z,101110.60
2022-10-19T00:33:55.904Z,101108.65
2022-10-19T00:36:27.450Z,101105.74
2022-10-19T00:38:56.920Z,101111.50
2022-10-19T00:41:27.895Z,101110.70
2022-10-19T00:44:06.484Z,101111.45
2022-10-19T00:46:37.839Z,101110.96
2022-10-19T00:49:22.435Z,101112.34
2022-10-19T00:51:57.122Z,101100.62
2022-10-19T00:54:26.802Z,101114.61
2022-10-19T00:56:58.026Z,101111.67
2022-10-19T00:59:28.493Z,101096.70
2022-10-19T01:01:56.588Z,101104.25
2022-10-19T01:04:26.998Z,101103.80
2022-10-19T01:06:55.752Z,101099.29
2022-10-19T01:09:23.766Z,101095.74
2022-10-19T01:12:04.316Z,101091.04
2022-10-19T01:14:41.119Z,101091.91
2022-10-19T01:17:28.164Z,101076.94
2022-10-19T01:20:08.431Z,101091.68
2022-10-19T01:22:36.665Z,101082.36
2022-10-19T01:25:31.956Z,101081.09
2022-10-19T01:28:32.177Z,101079.98
2022-10-19T01:31:35.658Z,101080.77
2022-10-19T01:34:06.477Z,101077.09
2022-10-19T01:36:46.690Z,101074.08
2022-10-19T01:39:23.061Z,101069.82
2022-10-19T01:42:03.432Z,101066.11
2022-10-19T01:44:45.324Z,101067.73
2022-10-19T01:47:22.292Z,101068.80
2022-10-19T01:50:06.673Z,101063.48
2022-10-19T01:52:37.250Z,101064.85
2022-10-19T01:55:05.966Z,101063.83
2022-10-19T01:57:41.515Z,101058.67
2022-10-19T02:00:13.068Z,101060.42
2022-10-19T02:02:45.841Z,101059.20
2022-10-19T02:05:15.606Z,101057.30
2022-10-19T02:07:49.720Z,101054.70
2022-10-19T02:10:19.478Z,101040.22
2022-10-19T02:12:48.574Z,101048.15
2022-10-19T02:15:21.349Z,101046.38
2022-10-19T02:17:53.377Z,101044.34
2022-10-19T02:20:21.617Z,101044.80
2022-10-19T02:22:49.938Z,101043.99
2022-10-19T02:25:18.257Z,101041.72
2022-10-19T02:27:46.167Z,101043.70
2022-10-19T02:30:17.391Z,101042.90
2022-10-19T02:32:45.672Z,101044.27
2022-10-19T02:35:14.939Z,101035.93
2022-10-19T02:37:43.389Z,101034.85
2022-10-19T02:40:12.690Z,101033.49
2022-10-19T02:42:51.378Z,101030.34
2022-10-19T02:45:27.627Z,101026.80
2022-10-19T02:48:01.199Z,101027.88
2022-10-19T02:50:29.530Z,101029.45
2022-10-19T02:53:00.581Z,101032.21
2022-10-19T02:55:30.259Z,101028.19
2022-10-19T02:57:59.105Z,101030.52
2022-10-19T03:00:27.211Z,101025.17
2022-10-19T03:02:55.269Z,101025.91
2022-10-19T03:05:23.482Z,101024.91
2022-10-19T03:07:52.116Z,101031.20
2022-10-19T03:10:20.009Z,101027.11
2022-10-19T03:12:48.014Z,101025.55
2022-10-19T03:15:17.398Z,101027.49
2022-10-19T03:17:45.392Z,101020.96
2022-10-19T03:20:13.851Z,101021.75
2022-10-19T03:22:41.798Z,101018.09
2022-10-19T03:25:09.889Z,101012.45
2022-10-19T03:27:37.826Z,101014.20
2022-10-19T03:30:06.399Z,101013.96
2022-10-19T03:32:34.635Z,101011.38
2022-10-19T03:35:02.592Z,101008.11
2022-10-19T03:37:30.485Z,101004.25
2022-10-19T03:39:58.703Z,101005.80
2022-10-19T03:42:27.099Z,101014.08
2022-10-19T03:44:55.350Z,101011.77
2022-10-19T03:47:23.474Z,101013.32
2022-10-19T03:49:52.050Z,101007.69
2022-10-19T03:52:20.209Z,101006.60
2022-10-19T03:54:52.345Z,101006.89
2022-10-19T03:57:23.806Z,101006.20
2022-10-19T03:59:51.625Z,101008.64
2022-10-19T04:02:20.340Z,101008.34
2022-10-19T04:04:48.380Z,101006.27
2022-10-19T04:07:16.229Z,101006.82
2022-10-19T04:09:44.479Z,101007.02
2022-10-19T04:12:12.449Z,100996.02
2022-10-19T04:14:56.361Z,100989.19
2022-10-19T04:17:26.387Z,101001.04
2022-10-19T04:19:54.220Z,101000.27
2022-10-19T04:22:22.354Z,101001.62
2022-10-19T04:24:50.605Z,100999.73
2022-10-19T04:27:18.668Z,100983.06
2022-10-19T04:29:46.590Z,100995.13
2022-10-19T04:32:14.754Z,100996.20
2022-10-19T04:34:42.581Z,100994.20
2022-10-19T04:37:10.514Z,100989.63
2022-10-19T04:39:41.297Z,100988.33
2022-10-19T04:42:09.167Z,100987.96
2022-10-19T04:44:36.953Z,100972.70
2022-10-19T04:47:05.541Z,100985.52
2022-10-19T04:49:33.463Z,100983.17
2022-10-19T04:52:01.495Z,100980.33
2022-10-19T04:54:29.951Z,100977.13
2022-10-19T04:56:58.459Z,100978.40
2022-10-19T04:59:26.362Z,100976.80
2022-10-19T05:01:54.567Z,100968.13
2022-10-19T05:04:22.509Z,100968.51
2022-10-19T05:06:50.410Z,100970.55
2022-10-19T05:09:18.690Z,100965.19
2022-10-19T05:11:50.368Z,100968.44
2022-10-19T05:14:18.243Z,100965.84
2022-10-19T05:16:47.000Z,100963.26
2022-10-19T05:19:15.038Z,100967.11
2022-10-19T05:21:43.294Z,100969.05
2022-10-19T05:24:13.513Z,100967.94
2022-10-19T05:26:41.440Z,100968.30
2022-10-19T05:29:14.299Z,100969.52
2022-10-19T05:31:42.322Z,100957.67
2022-10-19T05:34:10.524Z,100971.89
2022-10-19T05:36:41.102Z,100974.23
2022-10-19T05:39:13.545Z,100976.34
2022-10-19T05:41:46.880Z,100981.46
2022-10-19T05:44:22.803Z,100981.20
2022-10-19T05:46:52.372Z,100977.30
2022-10-19T05:49:22.067Z,100977.80
2022-10-19T05:51:50.754Z,100981.84
2022-10-19T05:54:21.786Z,100980.55
2022-10-19T05:56:52.008Z,100977.80
2022-10-19T05:59:21.276Z,100976.11
2022-10-19T06:01:49.625Z,100976.27
2022-10-19T06:06:51.204Z,100979.25
2022-10-19T06:09:19.495Z,100985.86
2022-10-19T06:11:48.639Z,100983.14
2022-10-19T06:14:16.844Z,100980.87
2022-10-19T06:16:46.260Z,100981.88
2022-10-19T06:19:14.497Z,100981.43
2022-10-19T06:21:46.015Z,100979.91
2022-10-19T06:24:14.805Z,100983.79
2022-10-19T06:26:42.950Z,100984.39
2022-10-19T06:29:11.356Z,100984.90
2022-10-19T06:31:39.480Z,100984.79
2022-10-19T06:34:07.491Z,100988.17
2022-10-19T06:36:35.949Z,100971.36
2022-10-19T06:39:04.812Z,100985.96
2022-10-19T06:41:39.215Z,100989.21
2022-10-19T06:44:19.522Z,100985.48
2022-10-19T06:46:47.581Z,100984.74
2022-10-19T06:49:15.645Z,100986.04
2022-10-19T06:51:43.966Z,100968.80
2022-10-19T06:54:12.005Z,100983.16
2022-10-19T06:56:39.946Z,100981.39
2022-10-19T06:59:08.108Z,100977.02
2022-10-19T07:01:35.948Z,100979.24
2022-10-19T07:04:04.613Z,100982.62
2022-10-19T07:06:32.776Z,100989.17
2022-10-19T07:09:00.852Z,100990.56
2022-10-19T07:11:28.933Z,100990.20
2022-10-19T07:13:57.364Z,100988.73
2022-10-19T07:16:25.187Z,100993.20
2022-10-19T07:18:53.761Z,100994.89
2022-10-19T07:21:24.095Z,100980.80
2022-10-19T07:23:52.473Z,100989.80
2022-10-19T07:26:27.206Z,100989.13
2022-10-19T07:28:57.673Z,100992.97
2022-10-19T07:31:28.400Z,100998.52
2022-10-19T07:33:59.525Z,101001.08
2022-10-19T07:36:29.160Z,101000.52
2022-10-19T07:38:57.809Z,101000.30
2022-10-19T07:41:27.079Z,101004.02
2022-10-19T07:43:55.515Z,101011.02
2022-10-19T07:46:26.358Z,101008.30
2022-10-19T07:48:54.453Z,101009.73
2022-10-19T07:51:22.937Z,101009.08
2022-10-19T07:53:51.420Z,101008.60
2022-10-19T07:56:25.178Z,101005.67
2022-10-19T07:58:55.768Z,101009.05
2022-10-19T08:01:27.837Z,101010.29
2022-10-19T08:04:49.031Z,101010.73
2022-10-19T08:06:46.539Z,101009.96
2022-10-19T08:09:33.306Z,101010.25
2022-10-19T08:12:03.785Z,101009.84
2022-10-19T08:14:32.150Z,101009.04
2022-10-19T08:17:00.782Z,100992.48
2022-10-19T08:19:30.089Z,101008.43
2022-10-19T08:21:58.758Z,101010.47
2022-10-19T08:24:26.710Z,101006.50
2022-10-19T08:26:54.996Z,101004.66
2022-10-19T08:29:23.816Z,101008.73
2022-10-19T08:31:53.698Z,101009.02
2022-10-19T08:34:22.598Z,101008.13
2022-10-19T08:36:50.723Z,101006.80
2022-10-19T08:39:18.714Z,101010.65
2022-10-19T08:41:56.325Z,101006.83
2022-10-19T08:44:49.533Z,101005.53
2022-10-19T08:47:38.453Z,101002.98
2022-10-19T08:50:24.815Z,101003.98
2022-10-19T08:53:19.611Z,101006.05
2022-10-19T08:56:22.165Z,101011.21
2022-10-19T08:59:26.846Z,101010.38
2022-10-19T09:02:10.070Z,101013.09
2022-10-19T09:04:42.240Z,101016.60
2022-10-19T09:07:13.248Z,101009.08
2022-10-19T09:09:49.599Z,101016.73
2022-10-19T09:12:24.974Z,101014.73
2022-10-19T09:15:07.608Z,101016.61
2022-10-19T09:17:35.840Z,101017.34
2022-10-19T09:20:26.714Z,101018.88
2022-10-19T09:23:04.426Z,101022.88
2022-10-19T09:25:37.646Z,101028.90
2022-10-19T09:28:36.480Z,101025.66
2022-10-19T09:31:39.563Z,101030.44
2022-10-19T09:34:36.463Z,101033.54
2022-10-19T09:37:04.791Z,101028.40
2022-10-19T09:39:33.040Z,101027.92
2022-10-19T09:42:33.888Z,101032.48
2022-10-19T09:45:16.461Z,101033.17
2022-10-19T09:47:48.253Z,101034.90
2022-10-19T09:50:25.105Z,101032.98
2022-10-19T09:52:58.717Z,101035.17
2022-10-19T09:55:33.925Z,101033.94
2022-10-19T09:58:10.029Z,101036.91
2022-10-19T10:00:42.825Z,101032.89
2022-10-19T10:03:29.766Z,101037.77
2022-10-19T10:06:04.137Z,100993.11
2022-10-19T10:08:37.153Z,101042.53
2022-10-19T10:11:22.889Z,101048.19
2022-10-19T10:13:54.224Z,101049.98
2022-10-19T10:16:24.894Z,101052.98
2022-10-19T10:18:59.251Z,101060.13
2022-10-19T10:21:51.285Z,101078.55
2022-10-19T10:24:22.116Z,101076.89
2022-10-19T10:27:11.798Z,101078.95
2022-10-19T10:29:39.961Z,101081.36
2022-10-19T10:32:13.686Z,101078.33
2022-10-19T10:35:02.048Z,101073.44
2022-10-19T10:37:46.570Z,101075.52
2022-10-19T10:40:26.460Z,101077.06
2022-10-19T10:42:57.891Z,101085.84
2022-10-19T10:45:31.196Z,101068.14
2022-10-19T10:48:14.946Z,101080.26
2022-10-19T10:50:43.882Z,101085.66
2022-10-19T10:53:44.681Z,101082.42
2022-10-19T10:56:26.079Z,101084.40
2022-10-19T10:59:13.115Z,101083.44
2022-10-19T11:01:50.342Z,101081.05
2022-10-19T11:04:26.330Z,101083.95
2022-10-19T11:07:04.385Z,101080.72
2022-10-19T11:09:39.463Z,101077.98
2022-10-19T11:12:14.294Z,101069.88
2022-10-19T11:15:03.171Z,101063.21
2022-10-19T11:17:36.831Z,101076.69
2022-10-19T11:20:08.336Z,101080.61
2022-10-19T11:22:43.349Z,101064.95
2022-10-19T11:25:26.850Z,101080.60
2022-10-19T11:28:11.748Z,101084.99
2022-10-19T11:30:51.837Z,101083.80
2022-10-19T11:36:29.125Z,101079.10
2022-10-19T11:39:35.930Z,101084.58
2022-10-19T11:42:03.966Z,101086.45
2022-10-19T11:44:45.925Z,101088.23
2022-10-19T11:47:17.306Z,101065.37
2022-10-19T11:50:04.360Z,101087.55
2022-10-19T11:52:56.618Z,101085.92
2022-10-19T11:55:48.017Z,101075.94
2022-10-19T11:58:43.993Z,101078.10
2022-10-19T12:01:25.076Z,101086.99
2022-10-19T12:04:02.750Z,101088.94
2022-10-19T12:06:52.664Z,101090.09
2022-10-19T12:09:43.021Z,101093.05
2022-10-19T12:12:47.447Z,101091.93
2022-10-19T12:15:35.307Z,101090.63
2022-10-19T12:18:22.193Z,101086.70
2022-10-19T12:20:57.423Z,101086.48
2022-10-19T12:23:34.100Z,101088.45
2022-10-19T12:26:05.959Z,101090.19
2022-10-19T12:28:49.536Z,101093.14
2022-10-19T12:31:18.736Z,101090.40
2022-10-19T12:34:18.264Z,101094.13
2022-10-19T12:37:13.818Z,101096.28
2022-10-19T12:40:07.356Z,101097.27
2022-10-19T12:43:02.956Z,101098.72
2022-10-19T12:45:45.522Z,101100.20
2022-10-19T12:48:14.664Z,101098.82
2022-10-19T12:50:48.742Z,101096.85
2022-10-19T12:53:28.362Z,101098.07
2022-10-19T12:56:20.222Z,101095.29
2022-10-19T12:58:59.844Z,101103.95
2022-10-19T13:01:34.083Z,101105.22
2022-10-19T13:04:19.163Z,101107.13
2022-10-19T13:06:50.747Z,101109.84
2022-10-19T13:09:34.461Z,101111.34
2022-10-19T13:12:19.415Z,101108.33
2022-10-19T13:14:59.499Z,101106.65
2022-10-19T13:17:54.784Z,101108.40
2022-10-19T13:20:25.123Z,101106.52
2022-10-19T13:23:05.518Z,101108.64
2022-10-19T13:25:40.467Z,101108.56
2022-10-19T13:28:11.264Z,101114.15
2022-10-19T13:31:04.963Z,101115.98
2022-10-19T13:33:44.991Z,101118.94
2022-10-19T13:36:14.130Z,101120.90
2022-10-19T13:38:59.140Z,101124.98
2022-10-19T13:41:34.286Z,101127.47
2022-10-19T13:44:05.289Z,101134.55
2022-10-19T13:46:45.799Z,101136.51
2022-10-19T13:49:36.439Z,101140.41
2022-10-19T13:52:27.065Z,101143.63
2022-10-19T13:55:29.513Z,101146.70
2022-10-19T13:58:03.866Z,101153.23
2022-10-19T14:01:05.381Z,101156.11
2022-10-19T14:04:03.717Z,101157.52
2022-10-19T14:06:52.487Z,101156.11
2022-10-19T14:09:26.489Z,101156.55
2022-10-19T14:12:06.974Z,101156.84
2022-10-19T14:14:44.082Z,101155.47
2022-10-19T14:19:55.486Z,101161.52
2022-10-19T14:22:35.328Z,101165.40
2022-10-19T14:25:17.832Z,101168.46
2022-10-19T14:27:48.259Z,101178.20
2022-10-19T14:30:29.364Z,101177.73
2022-10-19T14:33:02.171Z,101185.84
2022-10-19T14:35:39.862Z,101130.85
2022-10-19T14:38:21.764Z,101195.81
2022-10-19T14:40:49.871Z,101198.80
2022-10-19T14:43:22.378Z,101187.40
2022-10-19T14:46:07.216Z,101206.42
2022-10-19T14:48:47.675Z,101203.70
2022-10-19T14:51:47.561Z,101204.23
2022-10-19T14:54:41.453Z,101207.52
2022-10-19T14:57:26.267Z,101210.93
2022-10-19T15:00:01.565Z,101216.38
2022-10-19T15:02:40.720Z,101221.62
2022-10-19T15:05:20.709Z,101224.60
2022-10-19T15:07:50.276Z,101224.23
2022-10-19T15:10:32.352Z,101228.21
2022-10-19T15:13:08.130Z,101228.84
2022-10-19T15:15:36.557Z,101235.58
2022-10-19T15:18:06.514Z,101241.68
2022-10-19T15:20:44.165Z,101247.54
2022-10-19T15:23:39.935Z,101234.15
2022-10-19T15:26:17.522Z,101253.33
2022-10-19T15:28:46.700Z,101257.36
2022-10-19T15:31:18.524Z,101252.16
2022-10-19T15:34:01.030Z,101262.27
2022-10-19T15:36:32.954Z,101262.27
2022-10-19T15:39:18.073Z,101263.14
2022-10-19T15:41:56.740Z,101271.06
2022-10-19T15:44:44.387Z,101277.98
2022-10-19T15:47:15.351Z,101277.83
2022-10-19T15:49:43.189Z,101287.08
2022-10-19T15:52:32.869Z,101294.70
2022-10-19T15:55:01.399Z,101297.98
2022-10-19T15:57:32.981Z,101298.74
2022-10-19T16:00:12.524Z,101301.92
2022-10-19T16:02:41.004Z,101309.15
2022-10-19T16:05:10.216Z,101311.38
2022-10-19T16:07:40.574Z,101319.98
2022-10-19T16:10:16.638Z,101320.21
2022-10-19T16:12:45.028Z,101323.61
2022-10-19T16:15:22.165Z,101324.19
2022-10-19T16:17:52.812Z,101329.63
2022-10-19T16:20:21.909Z,101325.85
2022-10-19T16:22:50.112Z,101327.69
2022-10-19T16:25:18.359Z,101330.92
2022-10-19T16:27:46.535Z,101336.59
2022-10-19T16:30:14.634Z,101338.21
2022-10-19T16:35:15.751Z,101346.45
2022-10-19T16:37:44.387Z,101347.37
2022-10-19T16:40:12.345Z,101346.16
2022-10-19T16:42:40.527Z,101349.56
2022-10-19T16:45:09.782Z,101353.86
2022-10-19T16:47:37.641Z,101354.23
2022-10-19T16:50:06.695Z,101341.81
2022-10-19T16:52:35.107Z,101360.14
2022-10-19T16:55:03.614Z,101367.39
2022-10-19T16:57:31.799Z,101372.21
2022-10-19T17:00:00.139Z,101374.34
2022-10-19T17:02:29.306Z,101374.89
2022-10-19T17:05:00.135Z,101381.90
2022-10-19T17:07:28.194Z,101366.36
2022-10-19T17:09:56.474Z,101385.76
2022-10-19T17:12:24.675Z,101384.71
2022-10-19T17:14:52.625Z,101378.17
2022-10-19T17:17:21.058Z,101394.83
2022-10-19T17:19:51.968Z,101380.26
2022-10-19T17:22:23.389Z,101397.60
2022-10-19T17:24:51.431Z,101405.58
2022-10-19T17:27:19.411Z,101411.58
2022-10-19T17:29:48.075Z,101411.02
2022-10-19T17:32:17.159Z,101411.84
2022-10-19T17:34:45.260Z,101415.49
2022-10-19T17:37:13.592Z,101420.39
2022-10-19T17:39:41.602Z,101420.40
2022-10-19T17:42:09.948Z,101421.61
2022-10-19T17:44:38.128Z,101424.85
2022-10-19T17:47:06.386Z,101423.81
2022-10-19T17:49:38.035Z,101428.05
2022-10-19T17:52:06.023Z,101432.73
2022-10-19T17:54:43.511Z,101438.82
2022-10-19T17:57:22.157Z,101443.71
2022-10-19T17:59:52.853Z,101429.88
2022-10-19T18:02:21.186Z,101443.61
2022-10-19T18:04:50.182Z,101444.95
2022-10-19T18:07:19.202Z,101442.59
2022-10-19T18:09:47.187Z,101445.02
2022-10-19T18:12:15.320Z,101436.27
2022-10-19T18:14:45.221Z,101446.13
2022-10-19T18:17:13.123Z,101453.30
2022-10-19T18:19:41.382Z,101454.86
2022-10-19T18:22:09.909Z,101453.60
2022-10-19T18:24:38.519Z,101451.14
2022-10-19T18:27:06.958Z,101449.80
2022-10-19T18:29:35.055Z,101451.08
2022-10-19T18:32:03.258Z,101449.75
2022-10-19T18:34:32.677Z,101432.20
2022-10-19T18:37:00.773Z,101452.98
2022-10-19T18:39:28.616Z,101450.17
2022-10-19T18:41:56.670Z,101454.90
2022-10-19T18:44:27.040Z,101455.55
2022-10-19T18:46:57.828Z,101460.28
2022-10-19T18:49:26.126Z,101462.71
2022-10-19T18:51:55.715Z,101463.00
2022-10-19T18:54:26.550Z,101468.41
2022-10-19T18:56:55.677Z,101471.81
2022-10-19T18:59:23.934Z,101475.27
2022-10-19T19:01:52.706Z,101477.23
2022-10-19T19:04:21.088Z,101416.88
2022-10-19T19:06:49.279Z,101488.04
2022-10-19T19:09:19.144Z,101492.20
2022-10-19T19:11:50.220Z,101495.30
2022-10-19T19:14:21.280Z,101498.77
2022-10-19T19:16:49.845Z,101503.82
2022-10-19T19:19:19.274Z,101502.08
2022-10-19T19:21:49.130Z,101507.89
2022-10-19T19:24:22.030Z,101512.83
2022-10-19T19:26:55.659Z,101513.16
2022-10-19T19:29:27.222Z,101512.64
2022-10-19T19:31:55.291Z,101519.27
2022-10-19T19:34:23.362Z,101520.38
2022-10-19T19:36:51.475Z,101516.84
2022-10-19T19:39:21.423Z,101526.17
2022-10-19T19:41:50.549Z,101533.38
2022-10-19T19:44:19.144Z,101530.52
2022-10-19T19:46:47.625Z,101533.73
2022-10-19T19:49:15.566Z,101536.02
2022-10-19T19:51:43.557Z,101538.11
2022-10-19T19:54:12.022Z,101539.45
2022-10-19T19:56:42.204Z,101543.25
2022-10-19T19:59:12.415Z,101546.80
2022-10-19T20:01:40.943Z,101551.23
2022-10-19T20:04:10.408Z,101552.98
2022-10-19T20:06:39.959Z,101557.54
2022-10-19T20:09:10.255Z,101560.16
2022-10-19T20:11:42.340Z,101559.27
2022-10-19T20:14:12.644Z,101562.39
2022-10-19T20:16:40.955Z,101563.38
2022-10-19T20:19:14.102Z,101561.65
2022-10-19T20:21:44.918Z,101531.35
2022-10-19T20:24:12.863Z,101557.64
2022-10-19T20:26:40.959Z,101569.69
2022-10-19T20:29:08.918Z,101572.64
2022-10-19T20:31:40.520Z,101576.70
2022-10-19T20:34:14.191Z,101565.09
2022-10-19T20:36:43.424Z,101581.80
2022-10-19T20:39:11.463Z,101587.48
2022-10-19T20:41:39.837Z,101590.81
2022-10-19T20:44:07.845Z,101589.13
2022-10-19T20:46:37.250Z,101593.14
2022-10-19T20:49:05.454Z,101591.73
2022-10-19T20:51:37.067Z,101590.38
2022-10-19T20:54:10.051Z,101592.73
2022-10-19T20:56:40.489Z,101591.70
2022-10-19T20:59:13.109Z,101577.20
2022-10-19T21:01:43.501Z,101597.02
2022-10-19T21:04:16.097Z,101600.09
2022-10-19T21:06:46.843Z,101597.77
2022-10-19T21:09:21.298Z,101599.33
2022-10-19T21:11:51.439Z,101597.20
2022-10-19T21:14:25.468Z,101595.36
2022-10-19T21:16:58.243Z,101600.23
2022-10-19T21:19:28.958Z,101605.25
2022-10-19T21:22:02.573Z,101608.97
2022-10-19T21:24:34.670Z,101610.39
2022-10-19T21:27:06.638Z,101611.81
2022-10-19T21:29:35.638Z,101611.71
2022-10-19T21:32:03.691Z,101612.58
2022-10-19T21:34:32.326Z,101610.81
2022-10-19T21:37:00.444Z,101612.91
2022-10-19T21:39:28.827Z,101613.05
2022-10-19T21:41:57.179Z,101612.52
2022-10-19T21:44:25.269Z,101612.28
2022-10-19T21:46:53.642Z,101613.71
2022-10-19T21:49:21.609Z,101611.16
2022-10-19T21:51:53.819Z,101606.02
2022-10-19T21:54:28.318Z,101604.95
2022-10-19T21:56:57.937Z,101591.25
2022-10-19T21:59:26.111Z,101593.86
2022-10-19T22:01:55.315Z,101608.27
2022-10-19T22:04:23.457Z,101604.36
2022-10-19T22:06:51.607Z,101608.64
2022-10-19T22:09:23.239Z,101609.67
2022-10-19T22:11:51.256Z,101610.55
2022-10-19T22:14:19.255Z,101611.48
2022-10-19T22:16:47.488Z,101614.20
2022-10-19T22:19:15.428Z,101615.31
2022-10-19T22:21:43.609Z,101611.92
2022-10-19T22:24:14.902Z,101614.67
2022-10-19T22:26:46.414Z,101620.16
2022-10-19T22:29:14.509Z,101620.89
2022-10-19T22:31:42.837Z,101621.17
2022-10-19T22:34:15.121Z,101625.72
2022-10-19T22:36:44.562Z,101629.05
2022-10-19T22:39:12.909Z,101633.65
2022-10-19T22:42:38.244Z,101632.04
2022-10-19T22:45:25.622Z,101633.45
2022-10-19T22:47:53.646Z,101633.30
2022-10-19T22:50:21.401Z,101634.66
2022-10-19T22:52:49.487Z,101634.07
2022-10-19T22:55:17.480Z,101633.98
2022-10-19T22:57:45.246Z,101631.80
2022-10-19T23:00:14.032Z,101626.68
2022-10-19T23:02:41.985Z,101634.56
2022-10-19T23:05:09.802Z,101642.00
2022-10-19T23:07:38.361Z,101649.23
2022-10-19T23:10:07.202Z,101653.70
2022-10-19T23:12:35.315Z,101657.68
2022-10-19T23:15:03.487Z,101645.98
2022-10-19T23:17:32.108Z,101658.77
2022-10-19T23:19:59.901Z,101663.75
2022-10-19T23:22:27.857Z,101666.24
2022-10-19T23:24:55.698Z,101675.02
2022-10-19T23:27:23.567Z,101671.06
2022-10-19T23:29:51.572Z,101669.23
2022-10-19T23:32:19.656Z,101670.31
2022-10-19T23:34:48.490Z,101656.02
2022-10-19T23:37:16.752Z,101668.77
2022-10-19T23:39:44.688Z,101673.61
2022-10-19T23:42:12.467Z,101677.55
2022-10-19T23:44:40.509Z,101683.91
2022-10-19T23:47:08.420Z,101689.28
2022-10-19T23:49:36.353Z,101693.41
2022-10-19T23:52:04.881Z,101695.83
2022-10-19T23:54:32.941Z,101701.23
2022-10-19T23:57:01.096Z,101700.33
2022-10-19T23:59:29.189Z,101702.38
